sensor_id;sensor_type;location;lat;lon;timestamp;temperature;humidity
1361;DHT22;674;45.552;-122.600;2023-03-23T00:01:18;17.60;1.00
1361;DHT22;674;45.552;-122.600;2023-03-23T00:03:50;17.50;1.00
1361;DHT22;674;45.552;-122.600;2023-03-23T00:06:18;17.70;1.00
1361;DHT22;674;45.552;-122.600;2023-03-23T00:08:48;17.50;1.00
1361;DHT22;674;45.552;-122.600;2023-03-23T00:11:20;17.50;1.00
1361;DHT22;674;45.552;-122.600;2023-03-23T00:13:50;17.50;1.00
1361;DHT22;674;45.552;-122.600;2023-03-23T00:16:21;17.40;1.00
1361;DHT22;674;45.552;-122.600;2023-03-23T00:18:56;17.30;1.00
1361;DHT22;674;45.552;-122.600;2023-03-23T00:21:28;17.40;1.00
1361;DHT22;674;45.552;-122.600;2023-03-23T00:24:12;17.40;1.00
1361;DHT22;674;45.552;-122.600;2023-03-23T00:26:40;17.20;1.00
1361;DHT22;674;45.552;-122.600;2023-03-23T00:29:12;17.20;1.00
1361;DHT22;674;45.552;-122.600;2023-03-23T00:31:40;17.30;1.00
1361;DHT22;674;45.552;-122.600;2023-03-23T00:34:08;17.20;1.00
1361;DHT22;674;45.552;-122.600;2023-03-23T00:36:38;17.20;1.00
1361;DHT22;674;45.552;-122.600;2023-03-23T00:39:09;17.20;1.00
1361;DHT22;674;45.552;-122.600;2023-03-23T00:41:35;17.10;1.00
1361;DHT22;674;45.552;-122.600;2023-03-23T00:44:03;17.00;1.00
1361;DHT22;674;45.552;-122.600;2023-03-23T00:46:30;17.00;1.00
1361;DHT22;674;45.552;-122.600;2023-03-23T00:48:57;16.80;1.00
1361;DHT22;674;45.552;-122.600;2023-03-23T00:51:24;16.60;1.00
1361;DHT22;674;45.552;-122.600;2023-03-23T00:53:51;16.70;1.00
1361;DHT22;674;45.552;-122.600;2023-03-23T00:56:18;16.90;1.00
1361;DHT22;674;45.552;-122.600;2023-03-23T00:58:45;16.50;1.00
1361;DHT22;674;45.552;-122.600;2023-03-23T01:01:11;16.40;1.00
1361;DHT22;674;45.552;-122.600;2023-03-23T01:03:38;15.90;1.00
1361;DHT22;674;45.552;-122.600;2023-03-23T01:06:07;15.80;1.00
1361;DHT22;674;45.552;-122.600;2023-03-23T01:08:34;15.70;1.00
1361;DHT22;674;45.552;-122.600;2023-03-23T01:11:06;15.40;1.00
1361;DHT22;674;45.552;-122.600;2023-03-23T01:13:33;15.30;1.00
1361;DHT22;674;45.552;-122.600;2023-03-23T01:16:00;15.20;1.00
1361;DHT22;674;45.552;-122.600;2023-03-23T01:18:27;15.00;1.00
1361;DHT22;674;45.552;-122.600;2023-03-23T01:20:54;15.10;1.00
1361;DHT22;674;45.552;-122.600;2023-03-23T01:23:21;15.00;1.00
1361;DHT22;674;45.552;-122.600;2023-03-23T01:25:48;15.00;1.00
1361;DHT22;674;45.552;-122.600;2023-03-23T01:28:15;14.90;1.00
1361;DHT22;674;45.552;-122.600;2023-03-23T01:30:42;14.80;1.00
1361;DHT22;674;45.552;-122.600;2023-03-23T01:33:09;14.70;1.00
1361;DHT22;674;45.552;-122.600;2023-03-23T01:35:37;14.70;1.00
1361;DHT22;674;45.552;-122.600;2023-03-23T01:38:04;14.70;1.00
1361;DHT22;674;45.552;-122.600;2023-03-23T01:40:31;14.50;1.00
1361;DHT22;674;45.552;-122.600;2023-03-23T01:42:58;14.40;1.00
1361;DHT22;674;45.552;-122.600;2023-03-23T01:45:29;14.40;1.00
1361;DHT22;674;45.552;-122.600;2023-03-23T01:48:07;14.50;1.00
1361;DHT22;674;45.552;-122.600;2023-03-23T01:50:52;14.40;1.00
1361;DHT22;674;45.552;-122.600;2023-03-23T01:53:21;14.40;1.00
1361;DHT22;674;45.552;-122.600;2023-03-23T01:55:49;14.30;1.00
1361;DHT22;674;45.552;-122.600;2023-03-23T01:58:26;14.30;1.00
1361;DHT22;674;45.552;-122.600;2023-03-23T02:00:56;14.30;1.00
1361;DHT22;674;45.552;-122.600;2023-03-23T02:03:25;14.20;1.00
1361;DHT22;674;45.552;-122.600;2023-03-23T02:05:52;14.00;1.00
1361;DHT22;674;45.552;-122.600;2023-03-23T02:08:20;14.00;1.00
1361;DHT22;674;45.552;-122.600;2023-03-23T02:10:47;14.10;1.00
1361;DHT22;674;45.552;-122.600;2023-03-23T02:13:14;14.00;1.00
1361;DHT22;674;45.552;-122.600;2023-03-23T02:18:54;14.10;1.00
1361;DHT22;674;45.552;-122.600;2023-03-23T02:22:13;14.10;1.00
1361;DHT22;674;45.552;-122.600;2023-03-23T02:28:12;14.10;1.00
1361;DHT22;674;45.552;-122.600;2023-03-23T02:30:53;13.90;1.00
1361;DHT22;674;45.552;-122.600;2023-03-23T02:39:02;13.50;1.00
1361;DHT22;674;45.552;-122.600;2023-03-23T02:41:39;13.30;1.00
1361;DHT22;674;45.552;-122.600;2023-03-23T02:44:07;13.20;1.00
1361;DHT22;674;45.552;-122.600;2023-03-23T02:46:35;13.10;1.00
1361;DHT22;674;45.552;-122.600;2023-03-23T02:49:04;13.00;1.00
1361;DHT22;674;45.552;-122.600;2023-03-23T02:51:34;12.90;1.00
1361;DHT22;674;45.552;-122.600;2023-03-23T02:54:02;12.60;1.00
1361;DHT22;674;45.552;-122.600;2023-03-23T02:56:30;12.60;1.00
1361;DHT22;674;45.552;-122.600;2023-03-23T02:58:59;12.60;1.00
1361;DHT22;674;45.552;-122.600;2023-03-23T03:03:53;12.60;1.00
1361;DHT22;674;45.552;-122.600;2023-03-23T03:09:24;12.50;1.00
1361;DHT22;674;45.552;-122.600;2023-03-23T03:11:59;12.60;1.00
1361;DHT22;674;45.552;-122.600;2023-03-23T03:14:37;12.50;1.00
1361;DHT22;674;45.552;-122.600;2023-03-23T03:17:22;12.60;1.00
1361;DHT22;674;45.552;-122.600;2023-03-23T03:19:55;12.70;1.00
1361;DHT22;674;45.552;-122.600;2023-03-23T03:22:23;12.50;1.00
1361;DHT22;674;45.552;-122.600;2023-03-23T03:24:56;12.50;1.00
1361;DHT22;674;45.552;-122.600;2023-03-23T03:27:25;12.30;1.00
1361;DHT22;674;45.552;-122.600;2023-03-23T03:29:58;12.20;1.00
1361;DHT22;674;45.552;-122.600;2023-03-23T03:32:40;12.20;1.00
1361;DHT22;674;45.552;-122.600;2023-03-23T03:35:07;12.20;1.00
1361;DHT22;674;45.552;-122.600;2023-03-23T03:37:36;12.10;1.00
1361;DHT22;674;45.552;-122.600;2023-03-23T03:40:13;12.10;1.00
1361;DHT22;674;45.552;-122.600;2023-03-23T03:42:42;11.90;1.00
1361;DHT22;674;45.552;-122.600;2023-03-23T03:45:12;11.80;1.00
1361;DHT22;674;45.552;-122.600;2023-03-23T03:47:39;11.80;1.00
1361;DHT22;674;45.552;-122.600;2023-03-23T03:50:07;11.70;1.00
1361;DHT22;674;45.552;-122.600;2023-03-23T03:52:35;11.70;1.00
1361;DHT22;674;45.552;-122.600;2023-03-23T03:55:02;11.60;1.00
1361;DHT22;674;45.552;-122.600;2023-03-23T03:57:29;11.50;1.00
1361;DHT22;674;45.552;-122.600;2023-03-23T03:59:56;11.30;1.00
1361;DHT22;674;45.552;-122.600;2023-03-23T04:02:23;11.30;1.00
1361;DHT22;674;45.552;-122.600;2023-03-23T04:04:50;11.10;1.00
1361;DHT22;674;45.552;-122.600;2023-03-23T04:07:19;11.20;1.00
1361;DHT22;674;45.552;-122.600;2023-03-23T04:09:47;11.10;1.00
1361;DHT22;674;45.552;-122.600;2023-03-23T04:12:15;11.20;1.00
1361;DHT22;674;45.552;-122.600;2023-03-23T04:14:42;11.10;1.00
1361;DHT22;674;45.552;-122.600;2023-03-23T04:17:08;11.20;1.00
1361;DHT22;674;45.552;-122.600;2023-03-23T04:19:37;11.00;1.00
1361;DHT22;674;45.552;-122.600;2023-03-23T04:22:05;11.00;1.00
1361;DHT22;674;45.552;-122.600;2023-03-23T04:24:32;11.00;1.00
1361;DHT22;674;45.552;-122.600;2023-03-23T04:27:00;10.90;1.00
1361;DHT22;674;45.552;-122.600;2023-03-23T04:29:27;11.00;1.00
1361;DHT22;674;45.552;-122.600;2023-03-23T04:31:54;11.10;1.00
1361;DHT22;674;45.552;-122.600;2023-03-23T04:34:22;11.00;1.00
1361;DHT22;674;45.552;-122.600;2023-03-23T04:36:49;11.10;1.00
1361;DHT22;674;45.552;-122.600;2023-03-23T04:39:17;11.10;1.00
1361;DHT22;674;45.552;-122.600;2023-03-23T04:41:44;11.00;1.00
1361;DHT22;674;45.552;-122.600;2023-03-23T04:44:12;11.00;1.00
1361;DHT22;674;45.552;-122.600;2023-03-23T04:46:44;11.00;1.00
1361;DHT22;674;45.552;-122.600;2023-03-23T04:49:16;10.80;1.00
1361;DHT22;674;45.552;-122.600;2023-03-23T04:51:47;10.60;1.00
1361;DHT22;674;45.552;-122.600;2023-03-23T04:54:15;10.30;1.00
1361;DHT22;674;45.552;-122.600;2023-03-23T04:56:41;10.20;1.00
1361;DHT22;674;45.552;-122.600;2023-03-23T04:59:08;9.80;14.20
1361;DHT22;674;45.552;-122.600;2023-03-23T05:01:35;9.70;44.30
1361;DHT22;674;45.552;-122.600;2023-03-23T05:04:04;9.90;57.30
1361;DHT22;674;45.552;-122.600;2023-03-23T05:06:31;10.00;63.90
1361;DHT22;674;45.552;-122.600;2023-03-23T05:08:57;10.10;66.40
1361;DHT22;674;45.552;-122.600;2023-03-23T05:11:24;10.20;68.20
1361;DHT22;674;45.552;-122.600;2023-03-23T05:13:51;10.40;56.80
1361;DHT22;674;45.552;-122.600;2023-03-23T05:16:18;10.60;58.80
1361;DHT22;674;45.552;-122.600;2023-03-23T05:18:45;10.40;34.40
1361;DHT22;674;45.552;-122.600;2023-03-23T05:21:12;10.40;21.60
1361;DHT22;674;45.552;-122.600;2023-03-23T05:23:40;10.40;22.40
1361;DHT22;674;45.552;-122.600;2023-03-23T05:26:08;10.50;20.90
1361;DHT22;674;45.552;-122.600;2023-03-23T05:28:35;10.40;12.20
1361;DHT22;674;45.552;-122.600;2023-03-23T05:31:02;10.40;1.00
1361;DHT22;674;45.552;-122.600;2023-03-23T05:33:29;10.30;1.00
1361;DHT22;674;45.552;-122.600;2023-03-23T05:35:56;10.30;1.00
1361;DHT22;674;45.552;-122.600;2023-03-23T05:38:23;10.40;1.00
1361;DHT22;674;45.552;-122.600;2023-03-23T05:40:50;10.40;1.00
1361;DHT22;674;45.552;-122.600;2023-03-23T05:43:18;10.50;1.00
1361;DHT22;674;45.552;-122.600;2023-03-23T05:45:46;10.60;1.00
1361;DHT22;674;45.552;-122.600;2023-03-23T05:48:13;10.70;1.00
1361;DHT22;674;45.552;-122.600;2023-03-23T05:50:40;10.70;2.40
1361;DHT22;674;45.552;-122.600;2023-03-23T05:53:07;10.80;1.00
1361;DHT22;674;45.552;-122.600;2023-03-23T05:55:33;10.70;1.00
1361;DHT22;674;45.552;-122.600;2023-03-23T05:58:00;10.70;1.00
1361;DHT22;674;45.552;-122.600;2023-03-23T06:00:27;11.00;1.00
1361;DHT22;674;45.552;-122.600;2023-03-23T06:02:57;10.60;1.00
1361;DHT22;674;45.552;-122.600;2023-03-23T06:05:23;10.40;2.70
1361;DHT22;674;45.552;-122.600;2023-03-23T06:07:52;10.40;12.80
1361;DHT22;674;45.552;-122.600;2023-03-23T06:10:20;10.20;15.70
1361;DHT22;674;45.552;-122.600;2023-03-23T06:12:47;10.40;14.50
1361;DHT22;674;45.552;-122.600;2023-03-23T06:15:16;10.30;12.70
1361;DHT22;674;45.552;-122.600;2023-03-23T06:17:43;10.40;14.50
1361;DHT22;674;45.552;-122.600;2023-03-23T06:20:10;10.40;11.20
1361;DHT22;674;45.552;-122.600;2023-03-23T06:22:38;10.50;6.10
1361;DHT22;674;45.552;-122.600;2023-03-23T06:25:06;10.30;1.00
1361;DHT22;674;45.552;-122.600;2023-03-23T06:27:34;10.40;1.00
1361;DHT22;674;45.552;-122.600;2023-03-23T06:30:02;10.20;2.70
1361;DHT22;674;45.552;-122.600;2023-03-23T06:32:31;10.00;14.20
1361;DHT22;674;45.552;-122.600;2023-03-23T06:34:58;10.10;23.30
1361;DHT22;674;45.552;-122.600;2023-03-23T06:37:25;10.30;23.80
1361;DHT22;674;45.552;-122.600;2023-03-23T06:39:52;10.40;10.00
1361;DHT22;674;45.552;-122.600;2023-03-23T06:42:21;10.40;4.30
1361;DHT22;674;45.552;-122.600;2023-03-23T06:44:48;10.20;2.00
1361;DHT22;674;45.552;-122.600;2023-03-23T06:47:15;10.30;1.00
1361;DHT22;674;45.552;-122.600;2023-03-23T06:49:42;10.40;8.00
1361;DHT22;674;45.552;-122.600;2023-03-23T06:52:08;10.20;9.60
1361;DHT22;674;45.552;-122.600;2023-03-23T06:54:35;10.10;14.90
1361;DHT22;674;45.552;-122.600;2023-03-23T06:57:02;10.10;15.30
1361;DHT22;674;45.552;-122.600;2023-03-23T06:59:29;10.30;19.10
1361;DHT22;674;45.552;-122.600;2023-03-23T07:01:56;10.00;11.20
1361;DHT22;674;45.552;-122.600;2023-03-23T07:04:23;10.30;1.50
1361;DHT22;674;45.552;-122.600;2023-03-23T07:06:50;10.20;1.00
1361;DHT22;674;45.552;-122.600;2023-03-23T07:09:17;10.20;1.00
1361;DHT22;674;45.552;-122.600;2023-03-23T07:11:44;10.20;1.00
1361;DHT22;674;45.552;-122.600;2023-03-23T07:14:14;10.00;11.80
1361;DHT22;674;45.552;-122.600;2023-03-23T07:16:41;10.10;18.10
1361;DHT22;674;45.552;-122.600;2023-03-23T07:19:08;10.20;18.90
1361;DHT22;674;45.552;-122.600;2023-03-23T07:21:35;10.70;13.90
1361;DHT22;674;45.552;-122.600;2023-03-23T07:24:03;10.20;16.80
1361;DHT22;674;45.552;-122.600;2023-03-23T07:26:30;10.20;5.30
1361;DHT22;674;45.552;-122.600;2023-03-23T07:28:56;10.10;10.20
1361;DHT22;674;45.552;-122.600;2023-03-23T07:31:23;10.00;15.60
1361;DHT22;674;45.552;-122.600;2023-03-23T07:33:50;10.00;26.30
1361;DHT22;674;45.552;-122.600;2023-03-23T07:36:17;9.90;22.90
1361;DHT22;674;45.552;-122.600;2023-03-23T07:38:44;10.00;27.60
1361;DHT22;674;45.552;-122.600;2023-03-23T07:41:11;9.80;24.00
1361;DHT22;674;45.552;-122.600;2023-03-23T07:43:38;9.60;38.20
1361;DHT22;674;45.552;-122.600;2023-03-23T07:46:05;9.50;55.10
1361;DHT22;674;45.552;-122.600;2023-03-23T07:48:32;9.60;53.40
1361;DHT22;674;45.552;-122.600;2023-03-23T07:50:59;9.70;55.40
1361;DHT22;674;45.552;-122.600;2023-03-23T07:53:26;9.40;58.50
1361;DHT22;674;45.552;-122.600;2023-03-23T07:55:53;9.50;66.50
1361;DHT22;674;45.552;-122.600;2023-03-23T07:58:20;9.40;73.20
1361;DHT22;674;45.552;-122.600;2023-03-23T08:00:47;9.50;82.20
1361;DHT22;674;45.552;-122.600;2023-03-23T08:03:15;9.50;74.70
1361;DHT22;674;45.552;-122.600;2023-03-23T08:05:42;9.40;73.60
1361;DHT22;674;45.552;-122.600;2023-03-23T08:08:09;9.50;76.80
1361;DHT22;674;45.552;-122.600;2023-03-23T08:10:36;9.70;82.60
1361;DHT22;674;45.552;-122.600;2023-03-23T08:13:03;9.50;73.90
1361;DHT22;674;45.552;-122.600;2023-03-23T08:15:32;9.40;76.40
1361;DHT22;674;45.552;-122.600;2023-03-23T08:18:03;9.40;88.10
1361;DHT22;674;45.552;-122.600;2023-03-23T08:20:32;9.40;78.80
1361;DHT22;674;45.552;-122.600;2023-03-23T08:22:59;9.40;70.60
1361;DHT22;674;45.552;-122.600;2023-03-23T08:25:26;9.50;73.90
1361;DHT22;674;45.552;-122.600;2023-03-23T08:27:53;9.60;61.20
1361;DHT22;674;45.552;-122.600;2023-03-23T08:30:21;9.60;43.90
1361;DHT22;674;45.552;-122.600;2023-03-23T08:32:49;9.40;34.70
1361;DHT22;674;45.552;-122.600;2023-03-23T08:35:18;9.40;42.80
1361;DHT22;674;45.552;-122.600;2023-03-23T08:37:45;9.50;37.90
1361;DHT22;674;45.552;-122.600;2023-03-23T08:40:19;9.40;19.20
1361;DHT22;674;45.552;-122.600;2023-03-23T08:42:47;9.50;18.20
1361;DHT22;674;45.552;-122.600;2023-03-23T08:45:18;9.50;16.50
1361;DHT22;674;45.552;-122.600;2023-03-23T08:47:45;9.40;33.10
1361;DHT22;674;45.552;-122.600;2023-03-23T08:50:18;9.60;47.60
1361;DHT22;674;45.552;-122.600;2023-03-23T08:52:45;9.50;45.00
1361;DHT22;674;45.552;-122.600;2023-03-23T08:55:13;9.50;43.60
1361;DHT22;674;45.552;-122.600;2023-03-23T08:57:41;9.30;50.50
1361;DHT22;674;45.552;-122.600;2023-03-23T09:00:12;9.30;39.10
1361;DHT22;674;45.552;-122.600;2023-03-23T09:02:50;9.20;49.50
1361;DHT22;674;45.552;-122.600;2023-03-23T09:05:19;9.30;44.10
1361;DHT22;674;45.552;-122.600;2023-03-23T09:07:48;9.30;52.70
1361;DHT22;674;45.552;-122.600;2023-03-23T09:10:16;9.20;41.80
1361;DHT22;674;45.552;-122.600;2023-03-23T09:12:44;9.20;27.20
1361;DHT22;674;45.552;-122.600;2023-03-23T09:15:13;9.00;10.90
1361;DHT22;674;45.552;-122.600;2023-03-23T09:17:46;8.90;25.80
1361;DHT22;674;45.552;-122.600;2023-03-23T09:20:16;8.80;40.70
1361;DHT22;674;45.552;-122.600;2023-03-23T09:22:44;9.00;27.90
1361;DHT22;674;45.552;-122.600;2023-03-23T09:25:14;9.00;29.10
1361;DHT22;674;45.552;-122.600;2023-03-23T09:27:42;8.90;10.00
1361;DHT22;674;45.552;-122.600;2023-03-23T09:30:11;8.90;12.90
1361;DHT22;674;45.552;-122.600;2023-03-23T09:32:39;8.80;4.10
1361;DHT22;674;45.552;-122.600;2023-03-23T09:35:08;8.80;7.20
1361;DHT22;674;45.552;-122.600;2023-03-23T09:37:36;8.80;5.70
1361;DHT22;674;45.552;-122.600;2023-03-23T09:40:04;8.80;9.10
1361;DHT22;674;45.552;-122.600;2023-03-23T09:42:50;8.90;8.10
1361;DHT22;674;45.552;-122.600;2023-03-23T09:48:16;8.60;2.00
1361;DHT22;674;45.552;-122.600;2023-03-23T09:50:48;8.60;14.80
1361;DHT22;674;45.552;-122.600;2023-03-23T09:53:17;8.70;14.50
1361;DHT22;674;45.552;-122.600;2023-03-23T09:55:45;8.50;2.50
1361;DHT22;674;45.552;-122.600;2023-03-23T09:59:10;8.60;7.30
1361;DHT22;674;45.552;-122.600;2023-03-23T10:04:28;8.50;3.50
1361;DHT22;674;45.552;-122.600;2023-03-23T10:06:55;8.50;8.10
1361;DHT22;674;45.552;-122.600;2023-03-23T10:09:23;8.60;8.10
1361;DHT22;674;45.552;-122.600;2023-03-23T10:12:04;8.30;3.60
1361;DHT22;674;45.552;-122.600;2023-03-23T10:14:58;8.40;8.00
1361;DHT22;674;45.552;-122.600;2023-03-23T10:25:43;8.50;9.50
1361;DHT22;674;45.552;-122.600;2023-03-23T10:28:20;8.30;1.00
1361;DHT22;674;45.552;-122.600;2023-03-23T10:30:54;8.50;1.00
1361;DHT22;674;45.552;-122.600;2023-03-23T10:33:41;8.50;1.00
1361;DHT22;674;45.552;-122.600;2023-03-23T10:36:54;8.40;1.00
1361;DHT22;674;45.552;-122.600;2023-03-23T10:39:24;8.40;1.00
1361;DHT22;674;45.552;-122.600;2023-03-23T10:41:53;8.30;1.00
1361;DHT22;674;45.552;-122.600;2023-03-23T10:44:21;8.40;1.00
1361;DHT22;674;45.552;-122.600;2023-03-23T10:55:14;8.50;1.00
1361;DHT22;674;45.552;-122.600;2023-03-23T10:57:57;8.10;1.00
1361;DHT22;674;45.552;-122.600;2023-03-23T11:00:26;8.10;1.00
1361;DHT22;674;45.552;-122.600;2023-03-23T11:03:32;8.30;1.00
1361;DHT22;674;45.552;-122.600;2023-03-23T11:06:00;8.00;1.00
1361;DHT22;674;45.552;-122.600;2023-03-23T11:08:35;7.70;1.00
1361;DHT22;674;45.552;-122.600;2023-03-23T11:11:11;7.60;1.00
1361;DHT22;674;45.552;-122.600;2023-03-23T11:13:42;7.60;1.00
1361;DHT22;674;45.552;-122.600;2023-03-23T11:16:21;7.60;1.00
1361;DHT22;674;45.552;-122.600;2023-03-23T11:18:48;7.70;1.00
1361;DHT22;674;45.552;-122.600;2023-03-23T11:21:15;7.70;1.00
1361;DHT22;674;45.552;-122.600;2023-03-23T11:23:51;7.80;1.00
1361;DHT22;674;45.552;-122.600;2023-03-23T11:26:28;7.70;1.00
1361;DHT22;674;45.552;-122.600;2023-03-23T11:31:33;7.60;1.00
1361;DHT22;674;45.552;-122.600;2023-03-23T11:34:03;7.60;1.00
1361;DHT22;674;45.552;-122.600;2023-03-23T11:36:43;7.50;1.00
1361;DHT22;674;45.552;-122.600;2023-03-23T11:39:25;7.60;1.00
1361;DHT22;674;45.552;-122.600;2023-03-23T11:41:53;7.60;1.00
1361;DHT22;674;45.552;-122.600;2023-03-23T11:44:22;7.70;1.00
1361;DHT22;674;45.552;-122.600;2023-03-23T11:50:20;7.70;1.00
1361;DHT22;674;45.552;-122.600;2023-03-23T11:58:20;7.60;63.80
1361;DHT22;674;45.552;-122.600;2023-03-23T12:03:48;7.60;72.70
1361;DHT22;674;45.552;-122.600;2023-03-23T12:06:36;7.70;69.30
1361;DHT22;674;45.552;-122.600;2023-03-23T12:15:08;7.70;46.40
1361;DHT22;674;45.552;-122.600;2023-03-23T12:20:38;7.50;39.80
1361;DHT22;674;45.552;-122.600;2023-03-23T12:23:25;7.50;38.10
1361;DHT22;674;45.552;-122.600;2023-03-23T12:25:58;7.30;45.30
1361;DHT22;674;45.552;-122.600;2023-03-23T12:48:21;7.30;16.10
1361;DHT22;674;45.552;-122.600;2023-03-23T12:53:32;7.30;24.50
1361;DHT22;674;45.552;-122.600;2023-03-23T12:56:39;7.30;2.70
1361;DHT22;674;45.552;-122.600;2023-03-23T12:59:26;7.30;10.40
1361;DHT22;674;45.552;-122.600;2023-03-23T13:02:02;7.60;13.90
1361;DHT22;674;45.552;-122.600;2023-03-23T13:04:36;7.50;12.10
1361;DHT22;674;45.552;-122.600;2023-03-23T13:07:09;7.50;4.90
1361;DHT22;674;45.552;-122.600;2023-03-23T13:10:03;7.40;1.00
1361;DHT22;674;45.552;-122.600;2023-03-23T13:12:32;7.30;2.40
1361;DHT22;674;45.552;-122.600;2023-03-23T13:21:25;7.20;15.10
1361;DHT22;674;45.552;-122.600;2023-03-23T13:23:46;7.20;21.50
1361;DHT22;674;45.552;-122.600;2023-03-23T13:26:22;7.20;31.00
1361;DHT22;674;45.552;-122.600;2023-03-23T13:36:34;7.20;18.30
1361;DHT22;674;45.552;-122.600;2023-03-23T13:39:05;7.20;19.40
1361;DHT22;674;45.552;-122.600;2023-03-23T13:41:47;7.30;22.70
1361;DHT22;674;45.552;-122.600;2023-03-23T13:44:24;7.20;16.50
1361;DHT22;674;45.552;-122.600;2023-03-23T13:47:06;7.20;10.40
1361;DHT22;674;45.552;-122.600;2023-03-23T13:49:33;7.30;6.70
1361;DHT22;674;45.552;-122.600;2023-03-23T13:52:24;7.20;8.00
1361;DHT22;674;45.552;-122.600;2023-03-23T13:54:50;7.40;1.00
1361;DHT22;674;45.552;-122.600;2023-03-23T13:57:48;7.20;1.00
1361;DHT22;674;45.552;-122.600;2023-03-23T14:03:02;7.20;4.80
1361;DHT22;674;45.552;-122.600;2023-03-23T14:05:40;6.90;7.00
1361;DHT22;674;45.552;-122.600;2023-03-23T14:11:01;7.20;1.90
1361;DHT22;674;45.552;-122.600;2023-03-23T14:13:35;7.20;1.00
1361;DHT22;674;45.552;-122.600;2023-03-23T14:16:14;7.20;1.00
1361;DHT22;674;45.552;-122.600;2023-03-23T14:18:50;7.30;1.00
1361;DHT22;674;45.552;-122.600;2023-03-23T14:21:34;7.20;1.00
1361;DHT22;674;45.552;-122.600;2023-03-23T14:24:26;7.20;5.80
1361;DHT22;674;45.552;-122.600;2023-03-23T14:27:02;7.20;3.40
1361;DHT22;674;45.552;-122.600;2023-03-23T14:29:34;7.30;1.00
1361;DHT22;674;45.552;-122.600;2023-03-23T14:32:02;7.30;1.00
1361;DHT22;674;45.552;-122.600;2023-03-23T14:34:31;7.20;1.00
1361;DHT22;674;45.552;-122.600;2023-03-23T14:36:59;7.30;1.00
1361;DHT22;674;45.552;-122.600;2023-03-23T14:39:29;7.30;1.00
1361;DHT22;674;45.552;-122.600;2023-03-23T14:42:12;7.30;1.00
1361;DHT22;674;45.552;-122.600;2023-03-23T14:44:43;7.30;1.00
1361;DHT22;674;45.552;-122.600;2023-03-23T14:47:25;7.50;1.00
1361;DHT22;674;45.552;-122.600;2023-03-23T14:49:56;7.40;1.00
1361;DHT22;674;45.552;-122.600;2023-03-23T14:52:27;7.50;1.00
1361;DHT22;674;45.552;-122.600;2023-03-23T14:54:54;7.50;1.00
1361;DHT22;674;45.552;-122.600;2023-03-23T14:59:52;7.60;1.00
1361;DHT22;674;45.552;-122.600;2023-03-23T15:02:29;7.50;1.00
1361;DHT22;674;45.552;-122.600;2023-03-23T15:05:15;7.60;1.00
1361;DHT22;674;45.552;-122.600;2023-03-23T15:07:47;7.50;1.00
1361;DHT22;674;45.552;-122.600;2023-03-23T15:10:21;7.60;1.00
1361;DHT22;674;45.552;-122.600;2023-03-23T15:12:49;7.50;1.00
1361;DHT22;674;45.552;-122.600;2023-03-23T15:15:32;7.40;1.00
1361;DHT22;674;45.552;-122.600;2023-03-23T15:18:01;7.50;1.00
1361;DHT22;674;45.552;-122.600;2023-03-23T15:20:31;7.50;1.00
1361;DHT22;674;45.552;-122.600;2023-03-23T15:23:14;7.50;1.00
1361;DHT22;674;45.552;-122.600;2023-03-23T15:25:48;7.30;1.00
1361;DHT22;674;45.552;-122.600;2023-03-23T15:28:30;7.50;1.00
1361;DHT22;674;45.552;-122.600;2023-03-23T15:31:03;7.50;13.30
1361;DHT22;674;45.552;-122.600;2023-03-23T15:33:35;7.60;9.10
1361;DHT22;674;45.552;-122.600;2023-03-23T15:36:16;7.50;4.10
1361;DHT22;674;45.552;-122.600;2023-03-23T15:38:44;7.60;4.50
1361;DHT22;674;45.552;-122.600;2023-03-23T15:41:26;7.30;7.60
1361;DHT22;674;45.552;-122.600;2023-03-23T15:43:58;7.50;39.30
1361;DHT22;674;45.552;-122.600;2023-03-23T15:46:35;7.50;40.90
1361;DHT22;674;45.552;-122.600;2023-03-23T15:49:08;7.20;57.40
1361;DHT22;674;45.552;-122.600;2023-03-23T15:51:37;7.40;72.10
1361;DHT22;674;45.552;-122.600;2023-03-23T15:54:07;7.40;79.00
1361;DHT22;674;45.552;-122.600;2023-03-23T15:56:35;7.70;85.20
1361;DHT22;674;45.552;-122.600;2023-03-23T15:59:02;7.50;74.00
1361;DHT22;674;45.552;-122.600;2023-03-23T16:01:31;7.50;85.50
1361;DHT22;674;45.552;-122.600;2023-03-23T16:04:12;7.50;73.90
1361;DHT22;674;45.552;-122.600;2023-03-23T16:06:42;7.60;78.90
1361;DHT22;674;45.552;-122.600;2023-03-23T16:09:18;7.70;80.50
1361;DHT22;674;45.552;-122.600;2023-03-23T16:11:47;7.50;79.30
1361;DHT22;674;45.552;-122.600;2023-03-23T16:14:16;7.60;77.30
1361;DHT22;674;45.552;-122.600;2023-03-23T16:16:46;7.50;66.80
1361;DHT22;674;45.552;-122.600;2023-03-23T16:19:18;7.70;46.30
1361;DHT22;674;45.552;-122.600;2023-03-23T16:21:51;7.60;54.40
1361;DHT22;674;45.552;-122.600;2023-03-23T16:24:20;7.60;64.30
1361;DHT22;674;45.552;-122.600;2023-03-23T16:26:48;7.90;54.20
1361;DHT22;674;45.552;-122.600;2023-03-23T16:29:17;8.00;38.50
1361;DHT22;674;45.552;-122.600;2023-03-23T16:32:05;7.90;10.40
1361;DHT22;674;45.552;-122.600;2023-03-23T16:34:34;8.00;2.80
1361;DHT22;674;45.552;-122.600;2023-03-23T16:37:04;8.20;14.70
1361;DHT22;674;45.552;-122.600;2023-03-23T16:39:33;8.00;1.00
1361;DHT22;674;45.552;-122.600;2023-03-23T16:42:02;8.20;5.40
1361;DHT22;674;45.552;-122.600;2023-03-23T16:44:30;8.50;1.70
1361;DHT22;674;45.552;-122.600;2023-03-23T16:46:59;8.40;1.00
1361;DHT22;674;45.552;-122.600;2023-03-23T16:49:27;8.50;6.00
1361;DHT22;674;45.552;-122.600;2023-03-23T16:51:55;8.50;14.70
1361;DHT22;674;45.552;-122.600;2023-03-23T16:54:24;8.40;1.00
1361;DHT22;674;45.552;-122.600;2023-03-23T16:56:52;8.50;5.40
1361;DHT22;674;45.552;-122.600;2023-03-23T16:59:21;8.40;4.80
1361;DHT22;674;45.552;-122.600;2023-03-23T17:01:49;8.30;10.00
1361;DHT22;674;45.552;-122.600;2023-03-23T17:04:18;8.30;17.60
1361;DHT22;674;45.552;-122.600;2023-03-23T17:06:47;8.40;1.70
1361;DHT22;674;45.552;-122.600;2023-03-23T17:09:15;8.30;1.00
1361;DHT22;674;45.552;-122.600;2023-03-23T17:11:44;8.30;1.00
1361;DHT22;674;45.552;-122.600;2023-03-23T17:14:13;8.40;1.00
1361;DHT22;674;45.552;-122.600;2023-03-23T17:16:41;8.50;1.00
1361;DHT22;674;45.552;-122.600;2023-03-23T17:19:09;8.30;1.00
1361;DHT22;674;45.552;-122.600;2023-03-23T17:21:38;8.40;1.00
1361;DHT22;674;45.552;-122.600;2023-03-23T17:24:07;8.90;1.00
1361;DHT22;674;45.552;-122.600;2023-03-23T17:26:36;8.90;1.00
1361;DHT22;674;45.552;-122.600;2023-03-23T17:29:05;9.10;1.00
1361;DHT22;674;45.552;-122.600;2023-03-23T17:31:33;9.40;1.00
1361;DHT22;674;45.552;-122.600;2023-03-23T17:34:02;9.20;1.00
1361;DHT22;674;45.552;-122.600;2023-03-23T17:36:30;9.50;1.00
1361;DHT22;674;45.552;-122.600;2023-03-23T17:38:59;9.50;1.00
1361;DHT22;674;45.552;-122.600;2023-03-23T17:41:27;9.50;1.00
1361;DHT22;674;45.552;-122.600;2023-03-23T17:43:56;9.40;1.00
1361;DHT22;674;45.552;-122.600;2023-03-23T17:46:24;9.00;1.00
1361;DHT22;674;45.552;-122.600;2023-03-23T17:48:53;8.90;1.00
1361;DHT22;674;45.552;-122.600;2023-03-23T17:51:22;8.90;1.00
1361;DHT22;674;45.552;-122.600;2023-03-23T17:53:50;8.80;1.00
1361;DHT22;674;45.552;-122.600;2023-03-23T17:56:19;8.60;1.00
1361;DHT22;674;45.552;-122.600;2023-03-23T17:58:47;8.60;1.00
1361;DHT22;674;45.552;-122.600;2023-03-23T18:01:15;8.60;1.00